In Rescue
 
Open Full Screen Window  High Contrast Mode
January 18, 2019 5:20 AM PST
Weather Information
Wind Direction
  ---
Wind Speed
  00 kt (0 mph)
Wind Gust
  00 kt (0 mph)
Altimeter
30.28 in
Visibility
10 SM
Temperature
10° C
50° F
Dewpoint
10° C
50° F
Humidity
100%
1hr Rain Fall
00.00 in.
24hr Rain Fall
00.00 in.
Sky Condition
Scattered @ 9,500 ft
VFR

METAR KCVH 181320Z AUTO 00000KT 10SM SCT095 10/10 A3028 RMK A01

FAA Disclaimer: The data displayed is for advisory purposes only and is not to be used for flight planning or operations.